sensor_id;sensor_type;location;lat;lon;timestamp;P1;durP1;ratioP1;P2;durP2;ratioP2
36963;SDS011;22878;48.616;35.326;2022-07-31T00:01:59;12.68;;;4.37;;
36963;SDS011;22878;48.616;35.326;2022-07-31T00:04:25;13.53;;;4.67;;
36963;SDS011;22878;48.616;35.326;2022-07-31T00:06:52;9.43;;;4.58;;
36963;SDS011;22878;48.616;35.326;2022-07-31T00:09:18;9.58;;;4.50;;
36963;SDS011;22878;48.616;35.326;2022-07-31T00:11:44;15.95;;;4.92;;
36963;SDS011;22878;48.616;35.326;2022-07-31T00:14:11;22.48;;;5.58;;
36963;SDS011;22878;48.616;35.326;2022-07-31T00:16:37;14.60;;;4.62;;
36963;SDS011;22878;48.616;35.326;2022-07-31T00:19:03;12.60;;;4.95;;
36963;SDS011;22878;48.616;35.326;2022-07-31T00:21:29;12.35;;;4.40;;
36963;SDS011;22878;48.616;35.326;2022-07-31T00:23:55;10.63;;;4.62;;
36963;SDS011;22878;48.616;35.326;2022-07-31T00:26:21;11.22;;;5.20;;
36963;SDS011;22878;48.616;35.326;2022-07-31T00:28:47;16.30;;;4.70;;
36963;SDS011;22878;48.616;35.326;2022-07-31T00:31:13;20.88;;;5.67;;
36963;SDS011;22878;48.616;35.326;2022-07-31T00:33:39;19.02;;;5.53;;
36963;SDS011;22878;48.616;35.326;2022-07-31T00:36:06;10.32;;;5.17;;
36963;SDS011;22878;48.616;35.326;2022-07-31T00:38:32;15.80;;;5.55;;
36963;SDS011;22878;48.616;35.326;2022-07-31T00:40:58;16.27;;;5.35;;
36963;SDS011;22878;48.616;35.326;2022-07-31T00:43:24;10.43;;;5.17;;
36963;SDS011;22878;48.616;35.326;2022-07-31T00:45:50;12.15;;;5.47;;
36963;SDS011;22878;48.616;35.326;2022-07-31T00:48:17;16.20;;;5.85;;
36963;SDS011;22878;48.616;35.326;2022-07-31T00:50:43;12.28;;;5.33;;
36963;SDS011;22878;48.616;35.326;2022-07-31T00:53:10;18.25;;;5.22;;
36963;SDS011;22878;48.616;35.326;2022-07-31T00:55:36;15.28;;;5.28;;
36963;SDS011;22878;48.616;35.326;2022-07-31T00:58:03;14.07;;;5.15;;
36963;SDS011;22878;48.616;35.326;2022-07-31T01:00:29;11.78;;;4.65;;
36963;SDS011;22878;48.616;35.326;2022-07-31T01:02:55;16.00;;;4.72;;
36963;SDS011;22878;48.616;35.326;2022-07-31T01:05:21;23.50;;;5.20;;
36963;SDS011;22878;48.616;35.326;2022-07-31T01:07:47;18.82;;;5.83;;
36963;SDS011;22878;48.616;35.326;2022-07-31T01:10:16;15.83;;;4.90;;
36963;SDS011;22878;48.616;35.326;2022-07-31T01:12:48;16.12;;;5.20;;
36963;SDS011;22878;48.616;35.326;2022-07-31T01:15:21;17.40;;;5.75;;
36963;SDS011;22878;48.616;35.326;2022-07-31T01:17:49;14.58;;;5.22;;
36963;SDS011;22878;48.616;35.326;2022-07-31T01:20:17;15.98;;;6.05;;
36963;SDS011;22878;48.616;35.326;2022-07-31T01:25:58;10.45;;;5.33;;
36963;SDS011;22878;48.616;35.326;2022-07-31T01:31:25;15.05;;;5.33;;
36963;SDS011;22878;48.616;35.326;2022-07-31T01:34:00;18.57;;;5.37;;
36963;SDS011;22878;48.616;35.326;2022-07-31T01:36:30;13.38;;;4.75;;
36963;SDS011;22878;48.616;35.326;2022-07-31T01:39:02;13.40;;;5.08;;
36963;SDS011;22878;48.616;35.326;2022-07-31T01:41:31;14.30;;;5.65;;
36963;SDS011;22878;48.616;35.326;2022-07-31T01:44:00;12.30;;;4.47;;
36963;SDS011;22878;48.616;35.326;2022-07-31T01:46:29;13.35;;;5.47;;
36963;SDS011;22878;48.616;35.326;2022-07-31T01:48:59;13.88;;;5.12;;
36963;SDS011;22878;48.616;35.326;2022-07-31T01:51:26;10.65;;;5.00;;
36963;SDS011;22878;48.616;35.326;2022-07-31T01:53:55;15.72;;;5.28;;
36963;SDS011;22878;48.616;35.326;2022-07-31T01:56:22;14.33;;;5.12;;
36963;SDS011;22878;48.616;35.326;2022-07-31T01:58:51;11.55;;;4.60;;
36963;SDS011;22878;48.616;35.326;2022-07-31T02:01:19;19.17;;;5.08;;
36963;SDS011;22878;48.616;35.326;2022-07-31T02:03:47;12.73;;;5.42;;
36963;SDS011;22878;48.616;35.326;2022-07-31T02:06:15;14.73;;;5.05;;
36963;SDS011;22878;48.616;35.326;2022-07-31T02:08:46;12.35;;;5.28;;
36963;SDS011;22878;48.616;35.326;2022-07-31T02:11:17;26.40;;;5.70;;
36963;SDS011;22878;48.616;35.326;2022-07-31T02:13:47;15.80;;;5.60;;
36963;SDS011;22878;48.616;35.326;2022-07-31T02:16:15;11.18;;;5.33;;
36963;SDS011;22878;48.616;35.326;2022-07-31T02:18:43;13.10;;;5.65;;
36963;SDS011;22878;48.616;35.326;2022-07-31T02:21:13;18.12;;;5.72;;
36963;SDS011;22878;48.616;35.326;2022-07-31T02:23:41;14.33;;;5.78;;
36963;SDS011;22878;48.616;35.326;2022-07-31T02:26:07;14.87;;;5.17;;
36963;SDS011;22878;48.616;35.326;2022-07-31T02:28:34;15.50;;;5.62;;
36963;SDS011;22878;48.616;35.326;2022-07-31T02:31:05;14.93;;;6.33;;
36963;SDS011;22878;48.616;35.326;2022-07-31T02:33:35;9.65;;;4.80;;
36963;SDS011;22878;48.616;35.326;2022-07-31T02:36:04;10.08;;;5.12;;
36963;SDS011;22878;48.616;35.326;2022-07-31T02:38:32;15.23;;;5.55;;
36963;SDS011;22878;48.616;35.326;2022-07-31T02:41:02;14.47;;;5.90;;
36963;SDS011;22878;48.616;35.326;2022-07-31T02:43:32;15.48;;;6.22;;
36963;SDS011;22878;48.616;35.326;2022-07-31T02:46:00;11.57;;;5.67;;
36963;SDS011;22878;48.616;35.326;2022-07-31T02:48:37;13.58;;;5.87;;
36963;SDS011;22878;48.616;35.326;2022-07-31T02:51:11;10.80;;;5.78;;
36963;SDS011;22878;48.616;35.326;2022-07-31T02:53:38;12.78;;;6.37;;
36963;SDS011;22878;48.616;35.326;2022-07-31T02:56:04;14.50;;;6.45;;
36963;SDS011;22878;48.616;35.326;2022-07-31T02:58:42;17.85;;;7.75;;
36963;SDS011;22878;48.616;35.326;2022-07-31T03:01:11;18.65;;;7.78;;
36963;SDS011;22878;48.616;35.326;2022-07-31T03:03:38;18.87;;;7.83;;
36963;SDS011;22878;48.616;35.326;2022-07-31T03:06:04;14.50;;;7.40;;
36963;SDS011;22878;48.616;35.326;2022-07-31T03:08:31;18.95;;;8.05;;
36963;SDS011;22878;48.616;35.326;2022-07-31T03:11:02;20.65;;;7.05;;
36963;SDS011;22878;48.616;35.326;2022-07-31T03:13:28;23.27;;;8.48;;
36963;SDS011;22878;48.616;35.326;2022-07-31T03:15:56;21.75;;;8.75;;
36963;SDS011;22878;48.616;35.326;2022-07-31T03:18:26;21.40;;;8.45;;
36963;SDS011;22878;48.616;35.326;2022-07-31T03:20:53;19.62;;;8.03;;
36963;SDS011;22878;48.616;35.326;2022-07-31T03:23:21;20.82;;;8.18;;
36963;SDS011;22878;48.616;35.326;2022-07-31T03:25:50;17.80;;;7.47;;
36963;SDS011;22878;48.616;35.326;2022-07-31T03:28:18;24.72;;;11.38;;
36963;SDS011;22878;48.616;35.326;2022-07-31T03:30:46;27.80;;;12.80;;
36963;SDS011;22878;48.616;35.326;2022-07-31T03:33:21;23.77;;;11.18;;
36963;SDS011;22878;48.616;35.326;2022-07-31T03:35:52;19.27;;;8.20;;
36963;SDS011;22878;48.616;35.326;2022-07-31T03:38:19;13.30;;;5.70;;
36963;SDS011;22878;48.616;35.326;2022-07-31T03:40:47;10.88;;;4.70;;
36963;SDS011;22878;48.616;35.326;2022-07-31T03:43:13;12.23;;;4.78;;
36963;SDS011;22878;48.616;35.326;2022-07-31T03:45:41;11.05;;;4.12;;
36963;SDS011;22878;48.616;35.326;2022-07-31T03:48:09;11.48;;;4.87;;
36963;SDS011;22878;48.616;35.326;2022-07-31T03:50:36;11.95;;;3.90;;
36963;SDS011;22878;48.616;35.326;2022-07-31T03:53:05;11.38;;;3.98;;
36963;SDS011;22878;48.616;35.326;2022-07-31T03:55:36;7.62;;;3.85;;
36963;SDS011;22878;48.616;35.326;2022-07-31T03:58:08;11.08;;;3.95;;
36963;SDS011;22878;48.616;35.326;2022-07-31T04:00:35;10.85;;;4.15;;
36963;SDS011;22878;48.616;35.326;2022-07-31T04:03:05;13.28;;;3.52;;
36963;SDS011;22878;48.616;35.326;2022-07-31T04:05:34;6.90;;;3.42;;
36963;SDS011;22878;48.616;35.326;2022-07-31T04:08:05;8.13;;;3.95;;
36963;SDS011;22878;48.616;35.326;2022-07-31T04:10:32;11.33;;;4.15;;
36963;SDS011;22878;48.616;35.326;2022-07-31T04:13:04;9.75;;;3.92;;
36963;SDS011;22878;48.616;35.326;2022-07-31T04:15:32;9.30;;;3.50;;
36963;SDS011;22878;48.616;35.326;2022-07-31T04:17:59;10.55;;;4.28;;
36963;SDS011;22878;48.616;35.326;2022-07-31T04:20:25;9.43;;;3.95;;
36963;SDS011;22878;48.616;35.326;2022-07-31T04:25:29;7.30;;;3.55;;
36963;SDS011;22878;48.616;35.326;2022-07-31T04:27:55;9.43;;;3.20;;
36963;SDS011;22878;48.616;35.326;2022-07-31T04:30:23;6.60;;;2.95;;
36963;SDS011;22878;48.616;35.326;2022-07-31T04:32:50;5.92;;;2.95;;
36963;SDS011;22878;48.616;35.326;2022-07-31T04:35:16;6.67;;;3.17;;
36963;SDS011;22878;48.616;35.326;2022-07-31T04:37:42;7.33;;;2.98;;
36963;SDS011;22878;48.616;35.326;2022-07-31T04:40:09;6.45;;;2.62;;
36963;SDS011;22878;48.616;35.326;2022-07-31T04:42:40;8.83;;;2.95;;
36963;SDS011;22878;48.616;35.326;2022-07-31T04:45:06;4.60;;;2.60;;
36963;SDS011;22878;48.616;35.326;2022-07-31T04:47:35;9.93;;;3.17;;
36963;SDS011;22878;48.616;35.326;2022-07-31T04:50:21;7.87;;;2.70;;
36963;SDS011;22878;48.616;35.326;2022-07-31T04:53:03;5.85;;;3.05;;
36963;SDS011;22878;48.616;35.326;2022-07-31T04:56:25;6.25;;;2.95;;
36963;SDS011;22878;48.616;35.326;2022-07-31T04:59:04;4.20;;;2.58;;
36963;SDS011;22878;48.616;35.326;2022-07-31T05:01:41;7.40;;;2.62;;
36963;SDS011;22878;48.616;35.326;2022-07-31T05:16:09;9.43;;;2.87;;
36963;SDS011;22878;48.616;35.326;2022-07-31T05:18:49;21.85;;;3.87;;
36963;SDS011;22878;48.616;35.326;2022-07-31T05:23:47;5.75;;;2.87;;
36963;SDS011;22878;48.616;35.326;2022-07-31T05:32:25;9.48;;;3.30;;
36963;SDS011;22878;48.616;35.326;2022-07-31T05:34:52;8.65;;;3.10;;
36963;SDS011;22878;48.616;35.326;2022-07-31T05:37:24;6.65;;;3.15;;
36963;SDS011;22878;48.616;35.326;2022-07-31T05:39:50;6.60;;;3.42;;
36963;SDS011;22878;48.616;35.326;2022-07-31T05:42:16;6.75;;;3.65;;
36963;SDS011;22878;48.616;35.326;2022-07-31T05:47:48;11.22;;;3.10;;
36963;SDS011;22878;48.616;35.326;2022-07-31T05:50:23;4.83;;;3.35;;
36963;SDS011;22878;48.616;35.326;2022-07-31T05:52:57;7.72;;;3.60;;
36963;SDS011;22878;48.616;35.326;2022-07-31T05:55:25;7.97;;;3.47;;
36963;SDS011;22878;48.616;35.326;2022-07-31T05:57:57;8.20;;;3.65;;
36963;SDS011;22878;48.616;35.326;2022-07-31T06:00:28;8.38;;;3.62;;
36963;SDS011;22878;48.616;35.326;2022-07-31T06:02:54;5.55;;;3.55;;
36963;SDS011;22878;48.616;35.326;2022-07-31T06:05:21;10.98;;;3.83;;
36963;SDS011;22878;48.616;35.326;2022-07-31T06:07:53;5.17;;;3.70;;
36963;SDS011;22878;48.616;35.326;2022-07-31T06:10:23;10.60;;;3.70;;
36963;SDS011;22878;48.616;35.326;2022-07-31T06:12:52;7.12;;;4.20;;
36963;SDS011;22878;48.616;35.326;2022-07-31T06:17:54;7.65;;;3.60;;
36963;SDS011;22878;48.616;35.326;2022-07-31T06:20:20;5.30;;;3.33;;
36963;SDS011;22878;48.616;35.326;2022-07-31T06:22:46;5.62;;;3.50;;
36963;SDS011;22878;48.616;35.326;2022-07-31T06:25:12;4.97;;;3.30;;
36963;SDS011;22878;48.616;35.326;2022-07-31T06:27:39;5.17;;;3.27;;
36963;SDS011;22878;48.616;35.326;2022-07-31T06:30:06;5.97;;;2.95;;
36963;SDS011;22878;48.616;35.326;2022-07-31T06:32:34;5.78;;;3.05;;
36963;SDS011;22878;48.616;35.326;2022-07-31T06:35:01;6.40;;;2.47;;
36963;SDS011;22878;48.616;35.326;2022-07-31T06:37:28;7.03;;;3.02;;
36963;SDS011;22878;48.616;35.326;2022-07-31T06:39:54;9.78;;;2.90;;
36963;SDS011;22878;48.616;35.326;2022-07-31T06:42:21;8.90;;;2.60;;
36963;SDS011;22878;48.616;35.326;2022-07-31T06:45:04;10.23;;;2.45;;
36963;SDS011;22878;48.616;35.326;2022-07-31T06:47:32;6.50;;;2.30;;
36963;SDS011;22878;48.616;35.326;2022-07-31T06:49:57;3.83;;;2.65;;
36963;SDS011;22878;48.616;35.326;2022-07-31T06:52:27;8.28;;;2.20;;
36963;SDS011;22878;48.616;35.326;2022-07-31T06:54:56;3.75;;;2.37;;
36963;SDS011;22878;48.616;35.326;2022-07-31T06:57:25;6.00;;;2.20;;
36963;SDS011;22878;48.616;35.326;2022-07-31T06:59:51;6.90;;;1.98;;
36963;SDS011;22878;48.616;35.326;2022-07-31T07:02:20;7.97;;;2.30;;
36963;SDS011;22878;48.616;35.326;2022-07-31T07:07:15;7.03;;;1.95;;
36963;SDS011;22878;48.616;35.326;2022-07-31T07:12:11;6.55;;;3.08;;
36963;SDS011;22878;48.616;35.326;2022-07-31T07:14:38;6.37;;;2.08;;
36963;SDS011;22878;48.616;35.326;2022-07-31T07:17:06;2.55;;;2.00;;
36963;SDS011;22878;48.616;35.326;2022-07-31T07:19:40;9.20;;;2.25;;
36963;SDS011;22878;48.616;35.326;2022-07-31T07:22:08;5.28;;;1.85;;
36963;SDS011;22878;48.616;35.326;2022-07-31T07:24:34;5.67;;;2.20;;
36963;SDS011;22878;48.616;35.326;2022-07-31T07:27:00;4.42;;;2.05;;
36963;SDS011;22878;48.616;35.326;2022-07-31T07:29:27;8.13;;;1.98;;
36963;SDS011;22878;48.616;35.326;2022-07-31T07:31:58;6.58;;;2.00;;
36963;SDS011;22878;48.616;35.326;2022-07-31T07:34:26;2.33;;;1.95;;
36963;SDS011;22878;48.616;35.326;2022-07-31T07:36:53;26.87;;;3.08;;
36963;SDS011;22878;48.616;35.326;2022-07-31T07:39:22;3.58;;;1.72;;
36963;SDS011;22878;48.616;35.326;2022-07-31T07:41:54;4.28;;;1.65;;
36963;SDS011;22878;48.616;35.326;2022-07-31T07:44:26;4.87;;;1.65;;
36963;SDS011;22878;48.616;35.326;2022-07-31T07:46:54;11.15;;;2.55;;
36963;SDS011;22878;48.616;35.326;2022-07-31T07:49:21;7.47;;;1.77;;
36963;SDS011;22878;48.616;35.326;2022-07-31T07:51:49;2.42;;;1.72;;
36963;SDS011;22878;48.616;35.326;2022-07-31T07:54:18;3.95;;;1.90;;
36963;SDS011;22878;48.616;35.326;2022-07-31T07:56:44;8.50;;;1.70;;
36963;SDS011;22878;48.616;35.326;2022-07-31T07:59:15;7.40;;;1.90;;
36963;SDS011;22878;48.616;35.326;2022-07-31T08:04:11;5.45;;;1.80;;
36963;SDS011;22878;48.616;35.326;2022-07-31T08:06:48;5.65;;;1.82;;
36963;SDS011;22878;48.616;35.326;2022-07-31T08:11:58;6.35;;;1.82;;
36963;SDS011;22878;48.616;35.326;2022-07-31T08:14:30;7.35;;;1.82;;
36963;SDS011;22878;48.616;35.326;2022-07-31T08:17:00;10.05;;;1.95;;
36963;SDS011;22878;48.616;35.326;2022-07-31T08:19:33;4.22;;;1.70;;
36963;SDS011;22878;48.616;35.326;2022-07-31T08:21:59;3.77;;;1.70;;
36963;SDS011;22878;48.616;35.326;2022-07-31T08:24:25;3.65;;;1.85;;
36963;SDS011;22878;48.616;35.326;2022-07-31T08:26:51;2.20;;;1.30;;
36963;SDS011;22878;48.616;35.326;2022-07-31T08:29:39;4.58;;;1.70;;
36963;SDS011;22878;48.616;35.326;2022-07-31T08:32:04;9.53;;;1.65;;
36963;SDS011;22878;48.616;35.326;2022-07-31T08:34:31;7.17;;;1.52;;
36963;SDS011;22878;48.616;35.326;2022-07-31T08:36:58;4.33;;;1.87;;
36963;SDS011;22878;48.616;35.326;2022-07-31T08:39:24;3.22;;;1.62;;
36963;SDS011;22878;48.616;35.326;2022-07-31T08:41:55;3.30;;;1.70;;
36963;SDS011;22878;48.616;35.326;2022-07-31T08:44:24;2.42;;;1.60;;
36963;SDS011;22878;48.616;35.326;2022-07-31T08:46:53;4.40;;;1.50;;
36963;SDS011;22878;48.616;35.326;2022-07-31T08:49:27;6.00;;;1.50;;
36963;SDS011;22878;48.616;35.326;2022-07-31T08:51:55;4.10;;;1.60;;
36963;SDS011;22878;48.616;35.326;2022-07-31T08:54:23;13.30;;;2.05;;
36963;SDS011;22878;48.616;35.326;2022-07-31T08:56:51;3.45;;;1.35;;
36963;SDS011;22878;48.616;35.326;2022-07-31T08:59:18;3.52;;;1.35;;
36963;SDS011;22878;48.616;35.326;2022-07-31T09:01:46;2.42;;;1.77;;
36963;SDS011;22878;48.616;35.326;2022-07-31T09:04:13;4.10;;;2.20;;
36963;SDS011;22878;48.616;35.326;2022-07-31T09:06:39;2.27;;;1.70;;
36963;SDS011;22878;48.616;35.326;2022-07-31T09:09:05;5.60;;;2.20;;
36963;SDS011;22878;48.616;35.326;2022-07-31T09:11:44;3.00;;;1.80;;
36963;SDS011;22878;48.616;35.326;2022-07-31T09:17:02;48.33;;;3.17;;
36963;SDS011;22878;48.616;35.326;2022-07-31T09:19:43;6.05;;;2.00;;
36963;SDS011;22878;48.616;35.326;2022-07-31T09:27:48;3.70;;;1.55;;
36963;SDS011;22878;48.616;35.326;2022-07-31T09:35:49;9.45;;;1.72;;
36963;SDS011;22878;48.616;35.326;2022-07-31T09:38:20;2.15;;;1.30;;
36963;SDS011;22878;48.616;35.326;2022-07-31T09:47:38;4.47;;;1.60;;
36963;SDS011;22878;48.616;35.326;2022-07-31T09:51:21;2.50;;;1.17;;
36963;SDS011;22878;48.616;35.326;2022-07-31T10:06:08;5.37;;;1.32;;
36963;SDS011;22878;48.616;35.326;2022-07-31T10:09:20;4.97;;;1.65;;
36963;SDS011;22878;48.616;35.326;2022-07-31T10:13:02;3.08;;;1.30;;
36963;SDS011;22878;48.616;35.326;2022-07-31T10:17:32;10.18;;;1.20;;
36963;SDS011;22878;48.616;35.326;2022-07-31T10:21:03;5.25;;;1.37;;
36963;SDS011;22878;48.616;35.326;2022-07-31T10:23:31;13.93;;;1.80;;
36963;SDS011;22878;48.616;35.326;2022-07-31T10:26:04;4.35;;;1.30;;
36963;SDS011;22878;48.616;35.326;2022-07-31T10:28:37;6.92;;;1.17;;
36963;SDS011;22878;48.616;35.326;2022-07-31T10:33:39;4.28;;;1.35;;
36963;SDS011;22878;48.616;35.326;2022-07-31T10:36:11;2.10;;;1.10;;
36963;SDS011;22878;48.616;35.326;2022-07-31T10:41:51;2.83;;;1.17;;
36963;SDS011;22878;48.616;35.326;2022-07-31T10:46:57;8.58;;;1.72;;
36963;SDS011;22878;48.616;35.326;2022-07-31T10:52:09;3.83;;;1.55;;
36963;SDS011;22878;48.616;35.326;2022-07-31T10:54:56;13.18;;;1.37;;
36963;SDS011;22878;48.616;35.326;2022-07-31T10:58:46;8.53;;;1.17;;
36963;SDS011;22878;48.616;35.326;2022-07-31T11:02:25;4.95;;;1.50;;
36963;SDS011;22878;48.616;35.326;2022-07-31T11:09:20;1.70;;;1.25;;
36963;SDS011;22878;48.616;35.326;2022-07-31T11:11:47;2.27;;;1.10;;
36963;SDS011;22878;48.616;35.326;2022-07-31T11:14:13;5.08;;;1.05;;
36963;SDS011;22878;48.616;35.326;2022-07-31T11:16:52;10.38;;;1.52;;
36963;SDS011;22878;48.616;35.326;2022-07-31T11:19:19;7.30;;;1.60;;
36963;SDS011;22878;48.616;35.326;2022-07-31T11:24:19;2.42;;;1.40;;
36963;SDS011;22878;48.616;35.326;2022-07-31T11:26:51;2.37;;;1.45;;
36963;SDS011;22878;48.616;35.326;2022-07-31T11:29:30;7.15;;;2.12;;
36963;SDS011;22878;48.616;35.326;2022-07-31T11:37:24;4.30;;;1.20;;
36963;SDS011;22878;48.616;35.326;2022-07-31T11:39:58;7.85;;;1.57;;
36963;SDS011;22878;48.616;35.326;2022-07-31T11:42:26;4.60;;;1.45;;
36963;SDS011;22878;48.616;35.326;2022-07-31T11:44:52;6.72;;;1.35;;
36963;SDS011;22878;48.616;35.326;2022-07-31T11:47:38;3.35;;;1.17;;
36963;SDS011;22878;48.616;35.326;2022-07-31T11:50:07;2.62;;;1.05;;
36963;SDS011;22878;48.616;35.326;2022-07-31T11:52:37;6.08;;;1.30;;
36963;SDS011;22878;48.616;35.326;2022-07-31T11:55:06;3.62;;;1.45;;
36963;SDS011;22878;48.616;35.326;2022-07-31T11:57:40;5.83;;;1.10;;
36963;SDS011;22878;48.616;35.326;2022-07-31T12:00:10;6.92;;;1.50;;
36963;SDS011;22878;48.616;35.326;2022-07-31T12:05:10;3.05;;;1.62;;
36963;SDS011;22878;48.616;35.326;2022-07-31T12:07:43;2.77;;;1.50;;
36963;SDS011;22878;48.616;35.326;2022-07-31T12:10:10;5.60;;;1.77;;
36963;SDS011;22878;48.616;35.326;2022-07-31T12:12:37;6.70;;;1.80;;
36963;SDS011;22878;48.616;35.326;2022-07-31T12:15:18;9.05;;;2.33;;
36963;SDS011;22878;48.616;35.326;2022-07-31T12:20:15;5.85;;;2.08;;
36963;SDS011;22878;48.616;35.326;2022-07-31T12:22:41;4.25;;;2.10;;
36963;SDS011;22878;48.616;35.326;2022-07-31T12:25:11;12.53;;;2.10;;
36963;SDS011;22878;48.616;35.326;2022-07-31T12:27:39;5.62;;;1.70;;
36963;SDS011;22878;48.616;35.326;2022-07-31T12:30:12;6.80;;;1.60;;
36963;SDS011;22878;48.616;35.326;2022-07-31T12:32:40;4.42;;;1.80;;
36963;SDS011;22878;48.616;35.326;2022-07-31T12:35:07;10.55;;;1.95;;
36963;SDS011;22878;48.616;35.326;2022-07-31T12:37:43;6.47;;;2.25;;
36963;SDS011;22878;48.616;35.326;2022-07-31T12:40:24;5.12;;;1.50;;
36963;SDS011;22878;48.616;35.326;2022-07-31T12:42:52;6.92;;;1.67;;
36963;SDS011;22878;48.616;35.326;2022-07-31T12:47:59;7.78;;;1.65;;
36963;SDS011;22878;48.616;35.326;2022-07-31T12:50:26;6.28;;;1.85;;
36963;SDS011;22878;48.616;35.326;2022-07-31T12:52:56;4.80;;;1.55;;
36963;SDS011;22878;48.616;35.326;2022-07-31T12:55:25;7.92;;;1.65;;
36963;SDS011;22878;48.616;35.326;2022-07-31T12:57:53;5.17;;;1.82;;
36963;SDS011;22878;48.616;35.326;2022-07-31T13:00:20;10.28;;;1.77;;
36963;SDS011;22878;48.616;35.326;2022-07-31T13:02:48;3.27;;;1.47;;
36963;SDS011;22878;48.616;35.326;2022-07-31T13:05:16;4.17;;;1.70;;
36963;SDS011;22878;48.616;35.326;2022-07-31T13:07:42;2.22;;;1.07;;
36963;SDS011;22878;48.616;35.326;2022-07-31T13:10:08;2.62;;;1.50;;
36963;SDS011;22878;48.616;35.326;2022-07-31T13:12:34;4.72;;;1.42;;
36963;SDS011;22878;48.616;35.326;2022-07-31T13:15:03;4.12;;;1.45;;
36963;SDS011;22878;48.616;35.326;2022-07-31T13:17:29;7.17;;;1.72;;
36963;SDS011;22878;48.616;35.326;2022-07-31T13:19:55;12.40;;;1.67;;
36963;SDS011;22878;48.616;35.326;2022-07-31T13:22:23;13.58;;;1.62;;
36963;SDS011;22878;48.616;35.326;2022-07-31T13:24:49;6.78;;;1.77;;
36963;SDS011;22878;48.616;35.326;2022-07-31T13:27:16;3.90;;;1.40;;
36963;SDS011;22878;48.616;35.326;2022-07-31T13:29:43;3.50;;;1.62;;
36963;SDS011;22878;48.616;35.326;2022-07-31T13:32:09;5.10;;;1.57;;
36963;SDS011;22878;48.616;35.326;2022-07-31T13:34:36;24.80;;;3.87;;
36963;SDS011;22878;48.616;35.326;2022-07-31T13:37:02;7.67;;;1.80;;
36963;SDS011;22878;48.616;35.326;2022-07-31T13:39:28;8.93;;;1.80;;
36963;SDS011;22878;48.616;35.326;2022-07-31T13:41:54;18.73;;;2.17;;
36963;SDS011;22878;48.616;35.326;2022-07-31T13:44:20;4.00;;;1.50;;
36963;SDS011;22878;48.616;35.326;2022-07-31T13:46:46;9.55;;;1.70;;
36963;SDS011;22878;48.616;35.326;2022-07-31T13:49:13;5.67;;;1.32;;
36963;SDS011;22878;48.616;35.326;2022-07-31T13:51:39;7.12;;;2.02;;
36963;SDS011;22878;48.616;35.326;2022-07-31T13:54:05;4.80;;;1.50;;
36963;SDS011;22878;48.616;35.326;2022-07-31T13:56:32;8.58;;;1.35;;
36963;SDS011;22878;48.616;35.326;2022-07-31T13:58:59;9.78;;;1.45;;
36963;SDS011;22878;48.616;35.326;2022-07-31T14:01:25;4.15;;;1.52;;
36963;SDS011;22878;48.616;35.326;2022-07-31T14:03:51;8.10;;;1.45;;
36963;SDS011;22878;48.616;35.326;2022-07-31T14:06:17;4.62;;;1.30;;
36963;SDS011;22878;48.616;35.326;2022-07-31T14:08:43;3.42;;;1.30;;
36963;SDS011;22878;48.616;35.326;2022-07-31T14:11:10;5.33;;;1.55;;
36963;SDS011;22878;48.616;35.326;2022-07-31T14:13:39;5.33;;;1.30;;
36963;SDS011;22878;48.616;35.326;2022-07-31T14:16:05;4.25;;;1.35;;
36963;SDS011;22878;48.616;35.326;2022-07-31T14:18:31;5.83;;;1.57;;
36963;SDS011;22878;48.616;35.326;2022-07-31T14:20:57;4.70;;;1.60;;
36963;SDS011;22878;48.616;35.326;2022-07-31T14:23:23;6.15;;;1.60;;
36963;SDS011;22878;48.616;35.326;2022-07-31T14:25:49;6.60;;;1.80;;
36963;SDS011;22878;48.616;35.326;2022-07-31T14:28:15;5.20;;;1.37;;
36963;SDS011;22878;48.616;35.326;2022-07-31T14:30:41;3.55;;;1.42;;
36963;SDS011;22878;48.616;35.326;2022-07-31T14:33:09;4.05;;;1.70;;
36963;SDS011;22878;48.616;35.326;2022-07-31T14:35:36;5.65;;;1.60;;
36963;SDS011;22878;48.616;35.326;2022-07-31T14:38:02;4.10;;;1.67;;
36963;SDS011;22878;48.616;35.326;2022-07-31T14:40:29;3.58;;;1.62;;
36963;SDS011;22878;48.616;35.326;2022-07-31T14:42:55;5.05;;;1.50;;
36963;SDS011;22878;48.616;35.326;2022-07-31T14:45:22;1.80;;;1.32;;
36963;SDS011;22878;48.616;35.326;2022-07-31T14:47:48;4.85;;;1.70;;
36963;SDS011;22878;48.616;35.326;2022-07-31T14:50:14;8.00;;;1.87;;
36963;SDS011;22878;48.616;35.326;2022-07-31T14:52:40;5.55;;;1.70;;
36963;SDS011;22878;48.616;35.326;2022-07-31T14:55:07;7.55;;;1.65;;
36963;SDS011;22878;48.616;35.326;2022-07-31T14:57:34;8.78;;;2.35;;
36963;SDS011;22878;48.616;35.326;2022-07-31T15:00:00;3.33;;;2.00;;
36963;SDS011;22878;48.616;35.326;2022-07-31T15:02:26;7.03;;;2.02;;
36963;SDS011;22878;48.616;35.326;2022-07-31T15:04:52;4.37;;;1.95;;
36963;SDS011;22878;48.616;35.326;2022-07-31T15:07:18;8.20;;;2.00;;
36963;SDS011;22878;48.616;35.326;2022-07-31T15:09:45;4.25;;;1.82;;
36963;SDS011;22878;48.616;35.326;2022-07-31T15:12:11;3.25;;;1.67;;
36963;SDS011;22878;48.616;35.326;2022-07-31T15:14:39;3.98;;;1.80;;
36963;SDS011;22878;48.616;35.326;2022-07-31T15:17:05;5.95;;;1.87;;
36963;SDS011;22878;48.616;35.326;2022-07-31T15:19:31;6.87;;;1.87;;
36963;SDS011;22878;48.616;35.326;2022-07-31T15:21:56;7.00;;;1.77;;
36963;SDS011;22878;48.616;35.326;2022-07-31T15:24:23;8.68;;;2.20;;
36963;SDS011;22878;48.616;35.326;2022-07-31T15:26:49;16.48;;;2.33;;
36963;SDS011;22878;48.616;35.326;2022-07-31T15:29:14;3.90;;;2.05;;
36963;SDS011;22878;48.616;35.326;2022-07-31T15:31:41;6.78;;;2.10;;
36963;SDS011;22878;48.616;35.326;2022-07-31T15:34:07;3.60;;;1.92;;
36963;SDS011;22878;48.616;35.326;2022-07-31T15:36:33;3.92;;;1.95;;
36963;SDS011;22878;48.616;35.326;2022-07-31T15:38:59;18.45;;;2.67;;
36963;SDS011;22878;48.616;35.326;2022-07-31T15:41:28;15.38;;;2.47;;
36963;SDS011;22878;48.616;35.326;2022-07-31T15:43:54;6.37;;;1.90;;
36963;SDS011;22878;48.616;35.326;2022-07-31T15:46:20;5.25;;;1.57;;
36963;SDS011;22878;48.616;35.326;2022-07-31T15:48:46;6.10;;;1.90;;
36963;SDS011;22878;48.616;35.326;2022-07-31T15:51:12;3.67;;;1.92;;
36963;SDS011;22878;48.616;35.326;2022-07-31T15:53:38;5.67;;;2.05;;
36963;SDS011;22878;48.616;35.326;2022-07-31T15:56:04;6.08;;;1.77;;
36963;SDS011;22878;48.616;35.326;2022-07-31T15:58:31;10.15;;;2.55;;
36963;SDS011;22878;48.616;35.326;2022-07-31T16:00:57;7.53;;;2.10;;
36963;SDS011;22878;48.616;35.326;2022-07-31T16:03:23;6.55;;;2.08;;
36963;SDS011;22878;48.616;35.326;2022-07-31T16:05:49;3.45;;;1.90;;
36963;SDS011;22878;48.616;35.326;2022-07-31T16:08:15;6.28;;;1.67;;
36963;SDS011;22878;48.616;35.326;2022-07-31T16:10:41;3.33;;;1.80;;
36963;SDS011;22878;48.616;35.326;2022-07-31T16:13:07;5.25;;;2.10;;
36963;SDS011;22878;48.616;35.326;2022-07-31T16:15:33;10.05;;;2.42;;
36963;SDS011;22878;48.616;35.326;2022-07-31T16:17:59;6.28;;;2.22;;
36963;SDS011;22878;48.616;35.326;2022-07-31T16:20:26;8.68;;;2.05;;
36963;SDS011;22878;48.616;35.326;2022-07-31T16:22:53;4.47;;;1.70;;
36963;SDS011;22878;48.616;35.326;2022-07-31T16:25:22;9.75;;;2.40;;
36963;SDS011;22878;48.616;35.326;2022-07-31T16:27:50;6.53;;;2.37;;
36963;SDS011;22878;48.616;35.326;2022-07-31T16:30:16;11.18;;;2.27;;
36963;SDS011;22878;48.616;35.326;2022-07-31T16:32:42;5.28;;;1.90;;
36963;SDS011;22878;48.616;35.326;2022-07-31T16:35:09;9.23;;;1.98;;
36963;SDS011;22878;48.616;35.326;2022-07-31T16:37:36;13.18;;;1.80;;